createdAt,value
2019-06-20T00:00:26.697Z,99.90
2019-06-20T00:02:53.875Z,99.90
2019-06-20T00:05:22.978Z,99.90
2019-06-20T00:07:52.924Z,99.90
2019-06-20T00:10:21.826Z,99.90
2019-06-20T00:12:59.990Z,99.90
2019-06-20T00:15:18.620Z,99.90
2019-06-20T00:17:45.797Z,99.90
2019-06-20T00:20:13.467Z,99.90
2019-06-20T00:22:41.423Z,99.90
2019-06-20T00:25:08.604Z,99.90
2019-06-20T00:27:41.316Z,99.90
2019-06-20T00:30:10.942Z,99.90
2019-06-20T00:32:43.879Z,99.90
2019-06-20T00:35:30.058Z,99.90
2019-06-20T00:37:59.398Z,99.90
2019-06-20T00:40:27.548Z,99.90
2019-06-20T00:42:54.839Z,99.90
2019-06-20T00:45:27.474Z,99.90
2019-06-20T00:47:55.857Z,99.90
2019-06-20T00:50:22.908Z,99.90
2019-06-20T00:52:55.171Z,99.90
2019-06-20T00:55:20.155Z,99.90
2019-06-20T00:57:47.768Z,99.90
2019-06-20T01:00:15.290Z,99.90
2019-06-20T01:02:49.516Z,99.90
2019-06-20T01:05:14.326Z,99.90
2019-06-20T01:07:41.971Z,99.90
2019-06-20T01:10:13.475Z,99.90
2019-06-20T01:12:40.950Z,99.90
2019-06-20T01:15:10.401Z,99.90
2019-06-20T01:17:37.610Z,99.90
2019-06-20T01:20:08.769Z,99.90
2019-06-20T01:22:36.106Z,99.90
2019-06-20T01:25:06.972Z,99.90
2019-06-20T01:27:35.713Z,99.90
2019-06-20T01:30:08.590Z,99.90
2019-06-20T01:32:36.271Z,99.90
2019-06-20T01:35:07.633Z,99.90
2019-06-20T01:37:39.071Z,99.90
2019-06-20T01:40:06.426Z,99.90
2019-06-20T01:42:34.551Z,99.90
2019-06-20T01:45:03.912Z,99.90
2019-06-20T01:47:32.743Z,99.90
2019-06-20T01:50:03.548Z,99.90
2019-06-20T01:52:32.505Z,99.90
2019-06-20T01:55:04.144Z,99.90
2019-06-20T01:57:32.476Z,99.90
2019-06-20T01:59:59.521Z,99.90
2019-06-20T02:02:32.059Z,99.90
2019-06-20T02:04:59.394Z,99.90
2019-06-20T02:07:28.660Z,99.90
2019-06-20T02:09:57.806Z,99.90
2019-06-20T02:12:27.349Z,99.90
2019-06-20T02:14:57.572Z,99.90
2019-06-20T02:17:25.703Z,99.90
2019-06-20T02:19:55.944Z,99.90
2019-06-20T02:22:24.447Z,99.90
2019-06-20T02:24:51.585Z,99.90
2019-06-20T02:27:21.978Z,99.90
2019-06-20T02:29:57.323Z,99.90
2019-06-20T02:32:26.259Z,99.90
2019-06-20T02:34:52.999Z,99.90
2019-06-20T02:37:19.965Z,99.90
2019-06-20T02:39:49.106Z,99.90
2019-06-20T02:42:16.066Z,99.90
2019-06-20T02:44:46.045Z,99.90
2019-06-20T02:47:15.181Z,99.90
2019-06-20T02:49:44.271Z,99.90
2019-06-20T02:52:14.799Z,99.90
2019-06-20T02:54:42.153Z,99.90
2019-06-20T02:57:10.446Z,99.90
2019-06-20T02:59:37.478Z,99.90
2019-06-20T03:02:07.643Z,99.90
2019-06-20T03:04:34.714Z,99.90
2019-06-20T03:07:01.734Z,99.90
2019-06-20T03:09:33.368Z,99.90
2019-06-20T03:12:04.076Z,99.90
2019-06-20T03:14:44.470Z,99.90
2019-06-20T03:17:04.665Z,99.90
2019-06-20T03:19:33.570Z,99.90
2019-06-20T03:22:02.430Z,99.90
2019-06-20T03:24:31.367Z,99.90
2019-06-20T03:26:58.910Z,99.90
2019-06-20T03:29:28.284Z,99.90
2019-06-20T03:31:57.259Z,99.90
2019-06-20T03:34:26.447Z,99.90
2019-06-20T03:36:53.624Z,99.90
2019-06-20T03:39:20.874Z,99.90
2019-06-20T03:41:49.763Z,99.90
2019-06-20T03:44:21.118Z,99.90
2019-06-20T03:46:51.418Z,99.90
2019-06-20T03:49:21.147Z,99.90
2019-06-20T03:51:51.648Z,99.90
2019-06-20T03:54:18.284Z,99.90
2019-06-20T03:56:50.376Z,99.90
2019-06-20T03:59:17.257Z,99.90
2019-06-20T04:01:44.319Z,99.90
2019-06-20T04:04:11.257Z,99.90
2019-06-20T04:06:38.380Z,99.90
2019-06-20T04:09:07.149Z,99.90
2019-06-20T04:11:37.587Z,99.90
2019-06-20T04:14:07.000Z,99.90
2019-06-20T04:16:34.333Z,99.90
2019-06-20T04:19:04.129Z,99.90
2019-06-20T04:21:32.830Z,99.90
2019-06-20T04:24:01.867Z,99.90
2019-06-20T04:26:29.462Z,99.90
2019-06-20T04:28:58.890Z,99.90
2019-06-20T04:31:26.445Z,99.90
2019-06-20T04:33:55.645Z,99.90
2019-06-20T04:36:28.098Z,99.90
2019-06-20T04:39:18.329Z,99.90
2019-06-20T04:41:35.729Z,99.90
2019-06-20T04:44:06.641Z,99.90
2019-06-20T04:46:46.625Z,99.90
2019-06-20T04:49:20.277Z,99.90
2019-06-20T04:51:49.207Z,99.90
2019-06-20T04:54:16.189Z,99.90
2019-06-20T04:56:43.595Z,99.90
2019-06-20T04:59:13.836Z,99.90
2019-06-20T05:01:43.751Z,99.90
2019-06-20T05:04:12.984Z,99.90
2019-06-20T05:06:41.618Z,99.90
2019-06-20T05:09:10.745Z,99.90
2019-06-20T05:11:40.934Z,99.90
2019-06-20T05:14:10.039Z,99.90
2019-06-20T05:16:37.022Z,99.90
2019-06-20T05:19:04.403Z,99.90
2019-06-20T05:21:31.551Z,99.90
2019-06-20T05:24:02.822Z,99.90
2019-06-20T05:26:32.328Z,99.90
2019-06-20T05:28:59.564Z,99.90
2019-06-20T05:31:27.031Z,99.90
2019-06-20T05:33:56.498Z,99.90
2019-06-20T05:36:23.582Z,99.90
2019-06-20T05:38:50.658Z,99.90
2019-06-20T05:41:17.874Z,99.90
2019-06-20T05:43:45.873Z,99.90
2019-06-20T05:46:12.947Z,99.90
2019-06-20T05:48:43.343Z,99.20
2019-06-20T05:51:11.595Z,99.30
2019-06-20T05:53:40.510Z,99.30
2019-06-20T05:56:09.615Z,99.90
2019-06-20T05:58:39.426Z,99.90
2019-06-20T06:01:10.264Z,99.90
2019-06-20T06:03:40.637Z,99.60
2019-06-20T06:06:08.044Z,98.60
2019-06-20T06:08:36.385Z,98.80
2019-06-20T06:11:07.355Z,98.50
2019-06-20T06:13:36.411Z,98.60
2019-06-20T06:16:06.579Z,98.00
2019-06-20T06:18:35.536Z,98.60
2019-06-20T06:21:02.668Z,99.00
2019-06-20T06:23:31.801Z,97.70
2019-06-20T06:25:58.859Z,97.70
2019-06-20T06:28:27.739Z,98.00
2019-06-20T06:30:58.328Z,98.70
2019-06-20T06:33:29.043Z,98.80
2019-06-20T06:36:02.457Z,98.70
2019-06-20T06:38:31.915Z,96.80
2019-06-20T06:40:58.982Z,96.90
2019-06-20T06:43:27.360Z,96.90
2019-06-20T06:45:54.470Z,97.50
2019-06-20T06:48:21.667Z,97.50
2019-06-20T06:50:48.846Z,97.30
2019-06-20T06:53:16.171Z,96.90
2019-06-20T06:55:43.206Z,95.60
2019-06-20T06:58:11.815Z,96.80
2019-06-20T07:00:40.700Z,96.50
2019-06-20T07:03:08.022Z,95.00
2019-06-20T07:05:37.882Z,95.60
2019-06-20T07:08:05.391Z,95.30
2019-06-20T07:10:32.352Z,91.80
2019-06-20T07:13:02.335Z,91.30
2019-06-20T07:15:32.656Z,89.00
2019-06-20T07:18:04.323Z,87.60
2019-06-20T07:20:31.790Z,86.90
2019-06-20T07:22:58.937Z,86.70
2019-06-20T07:25:27.980Z,86.90
2019-06-20T07:28:01.652Z,85.50
2019-06-20T07:30:31.365Z,83.40
2019-06-20T07:33:01.266Z,82.40
2019-06-20T07:35:31.000Z,81.50
2019-06-20T07:38:02.633Z,83.00
2019-06-20T07:40:33.561Z,81.50
2019-06-20T07:43:03.621Z,80.70
2019-06-20T07:45:30.831Z,79.20
2019-06-20T07:47:57.946Z,78.70
2019-06-20T07:50:25.088Z,79.30
2019-06-20T07:53:01.875Z,79.00
2019-06-20T07:55:26.899Z,79.10
2019-06-20T07:57:54.261Z,78.30
2019-06-20T08:00:24.893Z,76.80
2019-06-20T08:02:53.989Z,75.60
2019-06-20T08:05:21.784Z,74.40
2019-06-20T08:07:51.338Z,76.00
2019-06-20T08:10:26.199Z,76.40
2019-06-20T08:13:02.137Z,73.80
2019-06-20T08:15:31.226Z,72.50
2019-06-20T08:17:58.580Z,69.40
2019-06-20T08:20:28.915Z,70.80
2019-06-20T08:22:57.701Z,67.10
2019-06-20T08:25:28.031Z,70.40
2019-06-20T08:27:56.029Z,70.00
2019-06-20T08:30:26.732Z,70.10
2019-06-20T08:32:54.384Z,69.20
2019-06-20T08:35:29.110Z,66.40
2019-06-20T08:37:59.190Z,66.90
2019-06-20T08:40:29.244Z,67.60
2019-06-20T08:43:02.198Z,65.90
2019-06-20T08:45:31.838Z,64.10
2019-06-20T08:48:00.396Z,64.60
2019-06-20T08:50:28.082Z,65.40
2019-06-20T08:52:56.621Z,63.90
2019-06-20T08:55:25.661Z,64.80
2019-06-20T08:57:55.704Z,64.60
2019-06-20T09:00:23.125Z,62.60
2019-06-20T09:02:54.083Z,62.80
2019-06-20T09:05:24.924Z,62.90
2019-06-20T09:07:54.819Z,62.60
2019-06-20T09:10:25.365Z,60.30
2019-06-20T09:12:57.064Z,60.80
2019-06-20T09:15:25.393Z,60.60
2019-06-20T09:17:54.094Z,61.00
2019-06-20T09:20:21.618Z,61.90
2019-06-20T09:22:48.591Z,59.30
2019-06-20T09:25:18.668Z,58.80
2019-06-20T09:27:58.067Z,58.80
2019-06-20T09:30:25.048Z,58.40
2019-06-20T09:32:55.549Z,59.70
2019-06-20T09:35:25.794Z,59.40
2019-06-20T09:37:53.685Z,58.80
2019-06-20T09:40:22.561Z,58.50
2019-06-20T09:42:51.144Z,60.30
2019-06-20T09:45:18.638Z,58.10
2019-06-20T09:47:52.049Z,58.90
2019-06-20T09:50:21.075Z,57.80
2019-06-20T09:52:49.697Z,55.70
2019-06-20T09:55:20.280Z,56.10
2019-06-20T09:57:48.655Z,59.80
2019-06-20T10:00:19.625Z,56.40
2019-06-20T10:02:51.781Z,56.40
2019-06-20T10:05:19.797Z,55.70
2019-06-20T10:07:47.266Z,57.50
2019-06-20T10:10:16.746Z,56.00
2019-06-20T10:12:46.758Z,56.40
2019-06-20T10:15:25.611Z,53.90
2019-06-20T10:17:54.396Z,54.30
2019-06-20T10:20:22.255Z,56.40
2019-06-20T10:22:50.719Z,54.00
2019-06-20T10:25:18.399Z,53.60
2019-06-20T10:27:48.336Z,54.00
2019-06-20T10:30:19.050Z,50.10
2019-06-20T10:32:46.757Z,49.70
2019-06-20T10:35:14.593Z,49.00
2019-06-20T10:37:41.835Z,47.70
2019-06-20T10:40:09.430Z,47.40
2019-06-20T10:42:36.847Z,46.60
2019-06-20T10:45:14.212Z,48.70
2019-06-20T10:47:43.587Z,50.50
2019-06-20T10:50:10.754Z,48.60
2019-06-20T10:52:38.036Z,47.10
2019-06-20T10:55:07.644Z,47.10
2019-06-20T10:57:37.537Z,48.10
2019-06-20T11:00:12.778Z,49.50
2019-06-20T11:02:45.272Z,46.80
2019-06-20T11:05:13.002Z,46.70
2019-06-20T11:07:40.751Z,47.00
2019-06-20T11:10:10.682Z,48.80
2019-06-20T11:12:45.652Z,49.30
2019-06-20T11:15:07.674Z,47.30
2019-06-20T11:17:34.838Z,48.30
2019-06-20T11:20:06.447Z,47.10
2019-06-20T11:22:37.816Z,46.70
2019-06-20T11:25:06.078Z,47.30
2019-06-20T11:27:33.650Z,47.70
2019-06-20T11:30:04.088Z,47.60
2019-06-20T11:32:33.272Z,48.50
2019-06-20T11:35:07.909Z,46.80
2019-06-20T11:37:38.037Z,47.30
2019-06-20T11:40:10.898Z,48.40
2019-06-20T11:42:39.941Z,46.90
2019-06-20T11:45:10.618Z,50.10
2019-06-20T11:47:42.539Z,46.70
2019-06-20T11:50:13.310Z,47.80
2019-06-20T11:52:45.299Z,44.80
2019-06-20T11:55:10.457Z,44.80
2019-06-20T11:57:40.581Z,44.80
2019-06-20T12:00:08.046Z,47.70
2019-06-20T12:02:40.543Z,48.80
2019-06-20T12:05:08.632Z,45.40
2019-06-20T12:07:39.607Z,44.10
2019-06-20T12:10:08.056Z,43.40
2019-06-20T12:12:41.117Z,46.60
2019-06-20T12:15:10.747Z,47.70
2019-06-20T12:17:38.162Z,48.40
2019-06-20T12:20:11.643Z,48.10
2019-06-20T12:22:39.963Z,49.00
2019-06-20T12:25:07.768Z,48.40
2019-06-20T12:27:38.649Z,48.60
2019-06-20T12:30:10.539Z,49.60
2019-06-20T12:32:37.630Z,49.40
2019-06-20T12:35:05.092Z,47.80
2019-06-20T12:37:36.032Z,49.60
2019-06-20T12:40:09.290Z,46.50
2019-06-20T12:42:39.144Z,49.10
2019-06-20T12:45:07.550Z,48.20
2019-06-20T12:47:34.787Z,47.70
2019-06-20T12:50:08.455Z,48.70
2019-06-20T12:52:39.547Z,49.70
2019-06-20T12:55:10.100Z,48.70
2019-06-20T12:57:42.239Z,48.70
2019-06-20T13:00:12.921Z,49.20
2019-06-20T13:02:43.773Z,47.10
2019-06-20T13:05:11.620Z,47.20
2019-06-20T13:07:40.408Z,45.10
2019-06-20T13:10:11.337Z,44.60
2019-06-20T13:12:40.818Z,45.20
2019-06-20T13:15:08.738Z,45.10
2019-06-20T13:17:47.139Z,46.20
2019-06-20T13:20:16.588Z,44.90
2019-06-20T13:22:44.818Z,45.00
2019-06-20T13:25:13.155Z,42.40
2019-06-20T13:27:41.039Z,44.50
2019-06-20T13:30:09.718Z,45.70
2019-06-20T13:32:42.057Z,44.40
2019-06-20T13:35:17.846Z,46.50
2019-06-20T13:37:47.934Z,46.00
2019-06-20T13:40:20.033Z,46.40
2019-06-20T13:42:54.695Z,51.60
2019-06-20T13:45:25.045Z,55.10
2019-06-20T13:48:00.224Z,54.70
2019-06-20T13:50:27.915Z,55.90
2019-06-20T13:52:58.815Z,57.10
2019-06-20T13:55:28.416Z,57.20
2019-06-20T13:58:04.838Z,57.40
2019-06-20T14:00:32.553Z,59.20
2019-06-20T14:03:02.584Z,59.20
2019-06-20T14:05:34.718Z,58.60
2019-06-20T14:08:02.092Z,58.70
2019-06-20T14:10:31.284Z,58.70
2019-06-20T14:13:00.667Z,59.20
2019-06-20T14:15:36.737Z,60.30
2019-06-20T14:18:04.188Z,59.60
2019-06-20T14:20:34.648Z,62.10
2019-06-20T14:23:03.911Z,61.50
2019-06-20T14:25:34.058Z,61.90
2019-06-20T14:28:04.960Z,63.70
2019-06-20T14:30:33.997Z,64.40
2019-06-20T14:33:01.512Z,63.30
2019-06-20T14:35:31.561Z,62.80
2019-06-20T14:38:01.168Z,63.90
2019-06-20T14:40:30.123Z,63.90
2019-06-20T14:42:57.412Z,62.80
2019-06-20T14:45:27.286Z,62.30
2019-06-20T14:47:55.242Z,63.00
2019-06-20T14:50:23.879Z,64.40
2019-06-20T14:52:54.115Z,61.70
2019-06-20T14:55:31.767Z,63.00
2019-06-20T14:58:05.659Z,64.00
2019-06-20T15:00:37.623Z,65.00
2019-06-20T15:03:12.956Z,65.10
2019-06-20T15:05:44.760Z,65.50
2019-06-20T15:08:19.599Z,65.00
2019-06-20T15:10:50.285Z,67.50
2019-06-20T15:13:18.412Z,66.70
2019-06-20T15:15:51.187Z,68.90
2019-06-20T15:18:23.394Z,67.00
2019-06-20T15:20:56.137Z,68.10
2019-06-20T15:23:22.903Z,68.00
2019-06-20T15:25:50.393Z,69.20
2019-06-20T15:28:20.772Z,69.90
2019-06-20T15:30:49.057Z,70.40
2019-06-20T15:33:17.423Z,71.60
2019-06-20T15:35:44.550Z,68.30
2019-06-20T15:38:11.534Z,71.50
2019-06-20T15:40:40.787Z,73.00
2019-06-20T15:43:08.308Z,74.30
2019-06-20T15:45:37.262Z,74.90
2019-06-20T15:48:07.415Z,74.90
2019-06-20T15:50:39.545Z,75.00
2019-06-20T15:53:10.453Z,73.60
2019-06-20T15:55:39.578Z,72.20
2019-06-20T15:58:11.010Z,72.10
2019-06-20T16:00:41.055Z,71.60
2019-06-20T16:03:14.236Z,71.60
2019-06-20T16:05:40.608Z,72.10
2019-06-20T16:08:12.718Z,72.50
2019-06-20T16:10:40.091Z,74.40
2019-06-20T16:13:09.219Z,77.90
2019-06-20T16:15:46.048Z,78.90
2019-06-20T16:18:15.322Z,81.70
2019-06-20T16:20:44.578Z,80.40
2019-06-20T16:23:16.623Z,82.20
2019-06-20T16:25:46.949Z,81.20
2019-06-20T16:28:19.175Z,82.90
2019-06-20T16:30:50.357Z,86.50
2019-06-20T16:33:28.573Z,82.20
2019-06-20T16:35:57.950Z,83.20
2019-06-20T16:38:24.979Z,85.60
2019-06-20T16:40:53.806Z,84.20
2019-06-20T16:43:21.158Z,85.40
2019-06-20T16:45:48.410Z,83.10
2019-06-20T16:48:17.507Z,84.10
2019-06-20T16:50:44.830Z,87.60
2019-06-20T16:53:13.856Z,90.40
2019-06-20T16:55:41.207Z,87.10
2019-06-20T16:58:14.291Z,87.10
2019-06-20T17:00:46.250Z,90.90
2019-06-20T17:03:16.441Z,90.20
2019-06-20T17:05:46.112Z,91.50
2019-06-20T17:08:15.356Z,92.10
2019-06-20T17:10:47.643Z,90.60
2019-06-20T17:13:17.067Z,90.10
2019-06-20T17:15:47.178Z,90.60
2019-06-20T17:18:15.868Z,91.20
2019-06-20T17:20:47.051Z,92.50
2019-06-20T17:23:17.850Z,93.30
2019-06-20T17:25:45.177Z,93.30
2019-06-20T17:28:18.196Z,93.20
2019-06-20T17:30:43.255Z,93.70
2019-06-20T17:33:14.234Z,95.00
2019-06-20T17:35:45.785Z,96.90
2019-06-20T17:38:15.971Z,98.60
2019-06-20T17:40:43.215Z,92.50
2019-06-20T17:43:12.928Z,92.30
2019-06-20T17:45:42.898Z,91.90
2019-06-20T17:48:14.829Z,91.30
2019-06-20T17:50:43.634Z,90.60
2019-06-20T17:53:11.177Z,90.90
2019-06-20T17:55:42.747Z,91.90
2019-06-20T17:58:11.815Z,92.10
2019-06-20T18:00:43.700Z,91.40
2019-06-20T18:03:14.128Z,91.60
2019-06-20T18:05:42.689Z,92.20
2019-06-20T18:08:15.090Z,96.70
2019-06-20T18:10:38.838Z,92.60
2019-06-20T18:13:07.691Z,92.60
2019-06-20T18:15:36.497Z,93.20
2019-06-20T18:18:05.270Z,92.70
2019-06-20T18:20:32.673Z,92.60
2019-06-20T18:22:59.725Z,93.10
2019-06-20T18:25:26.990Z,93.10
2019-06-20T18:27:54.146Z,93.40
2019-06-20T18:30:25.729Z,93.30
2019-06-20T18:32:52.871Z,95.70
2019-06-20T18:35:20.080Z,94.00
2019-06-20T18:37:47.128Z,94.10
2019-06-20T18:40:14.586Z,94.60
2019-06-20T18:42:41.732Z,95.20
2019-06-20T18:45:10.632Z,94.10
2019-06-20T18:47:39.511Z,94.70
2019-06-20T18:50:07.618Z,94.40
2019-06-20T18:52:51.758Z,94.80
2019-06-20T18:55:09.989Z,95.10
2019-06-20T18:57:38.834Z,95.30
2019-06-20T19:00:12.056Z,95.60
2019-06-20T19:02:39.132Z,95.80
2019-06-20T19:05:08.217Z,95.80
2019-06-20T19:07:35.456Z,96.00
2019-06-20T19:10:10.293Z,95.90
2019-06-20T19:12:40.728Z,95.90
2019-06-20T19:15:10.418Z,96.40
2019-06-20T19:17:37.687Z,96.70
2019-06-20T19:20:07.075Z,97.00
2019-06-20T19:22:35.540Z,96.60
2019-06-20T19:25:07.459Z,96.50
2019-06-20T19:27:45.587Z,96.80
2019-06-20T19:30:14.309Z,97.10
2019-06-20T19:32:43.389Z,97.10
2019-06-20T19:35:11.679Z,97.10
2019-06-20T19:37:39.216Z,97.10
2019-06-20T19:40:11.155Z,96.50
2019-06-20T19:42:38.044Z,96.60
2019-06-20T19:45:08.839Z,96.30
2019-06-20T19:47:36.236Z,97.10
2019-06-20T19:50:05.205Z,97.30
2019-06-20T19:52:33.974Z,97.00
2019-06-20T19:55:03.168Z,97.20
2019-06-20T19:57:33.740Z,96.70
2019-06-20T20:00:05.058Z,96.90
2019-06-20T20:02:34.283Z,97.20
2019-06-20T20:05:19.091Z,97.60
2019-06-20T20:07:39.334Z,97.10
2019-06-20T20:10:14.568Z,97.20
2019-06-20T20:12:41.924Z,97.20
2019-06-20T20:15:14.922Z,97.20
2019-06-20T20:17:42.467Z,96.80
2019-06-20T20:20:11.575Z,96.70
2019-06-20T20:22:38.898Z,97.20
2019-06-20T20:25:07.058Z,97.30
2019-06-20T20:27:34.133Z,97.90
2019-06-20T20:30:03.095Z,97.50
2019-06-20T20:32:33.046Z,98.10
2019-06-20T20:35:02.235Z,97.60
2019-06-20T20:37:32.159Z,96.40
2019-06-20T20:39:59.503Z,96.40
2019-06-20T20:42:32.387Z,96.10
2019-06-20T20:45:00.558Z,95.90
2019-06-20T20:47:34.637Z,94.80
2019-06-20T20:50:03.771Z,94.70
2019-06-20T20:52:34.859Z,93.90
2019-06-20T20:55:07.791Z,93.50
2019-06-20T20:57:34.917Z,93.20
2019-06-20T21:00:05.159Z,93.20
2019-06-20T21:02:33.459Z,93.10
2019-06-20T21:05:02.544Z,92.70
2019-06-20T21:07:29.878Z,92.90
2019-06-20T21:09:59.013Z,92.80
2019-06-20T21:12:27.804Z,92.30
2019-06-20T21:14:55.659Z,92.10
2019-06-20T21:17:24.434Z,91.90
2019-06-20T21:19:56.271Z,92.00
2019-06-20T21:22:27.561Z,91.70
2019-06-20T21:24:57.270Z,91.50
2019-06-20T21:27:30.418Z,91.90
2019-06-20T21:29:59.201Z,91.30
2019-06-20T21:32:26.349Z,91.50
2019-06-20T21:34:53.396Z,91.50
2019-06-20T21:37:22.183Z,91.30
2019-06-20T21:39:49.166Z,91.10
2019-06-20T21:42:16.275Z,91.00
2019-06-20T21:44:47.176Z,91.00
2019-06-20T21:47:17.296Z,91.20
2019-06-20T21:49:44.683Z,90.60
2019-06-20T21:52:12.039Z,90.30
2019-06-20T21:54:40.678Z,91.00
2019-06-20T21:57:09.974Z,91.20
2019-06-20T21:59:41.025Z,90.10
2019-06-20T22:02:09.956Z,88.60
2019-06-20T22:04:53.671Z,85.90
2019-06-20T22:07:13.565Z,86.20
2019-06-20T22:09:44.971Z,84.20
2019-06-20T22:12:13.779Z,84.60
2019-06-20T22:15:04.077Z,84.70
2019-06-20T22:17:36.544Z,83.70
2019-06-20T22:20:13.237Z,85.60
2019-06-20T22:22:43.535Z,87.10
2019-06-20T22:25:15.630Z,88.10
2019-06-20T22:27:46.359Z,88.80
2019-06-20T22:30:17.576Z,89.40
2019-06-20T22:32:44.736Z,88.00
2019-06-20T22:35:12.488Z,87.80
2019-06-20T22:37:46.326Z,88.90
2019-06-20T22:40:19.176Z,88.60
2019-06-20T22:42:46.527Z,88.30
2019-06-20T22:45:15.608Z,87.80
2019-06-20T22:47:43.939Z,87.80
2019-06-20T22:50:18.268Z,87.60
2019-06-20T22:52:48.050Z,89.00
2019-06-20T22:55:15.607Z,88.50
2019-06-20T22:57:45.863Z,89.60
2019-06-20T23:00:17.373Z,92.00
2019-06-20T23:02:46.468Z,93.50
2019-06-20T23:05:17.097Z,94.60
2019-06-20T23:07:46.559Z,95.20
2019-06-20T23:10:14.456Z,95.10
2019-06-20T23:12:44.458Z,95.00
2019-06-20T23:15:16.334Z,95.10
2019-06-20T23:17:43.421Z,95.00
2019-06-20T23:20:13.882Z,95.20
2019-06-20T23:22:40.136Z,95.00
2019-06-20T23:25:09.026Z,95.70
2019-06-20T23:27:36.496Z,94.20
2019-06-20T23:30:10.015Z,93.50
2019-06-20T23:32:49.430Z,94.50
2019-06-20T23:35:20.706Z,96.00
2019-06-20T23:37:50.567Z,96.30
2019-06-20T23:40:20.706Z,96.40
2019-06-20T23:42:49.409Z,96.80
2019-06-20T23:45:17.621Z,96.90
2019-06-20T23:47:46.861Z,96.90
2019-06-20T23:50:19.861Z,97.10
2019-06-20T23:52:58.554Z,97.30
2019-06-20T23:55:27.534Z,97.40
2019-06-20T23:57:59.018Z,97.40
